Hibbing, MN (55746)

11:29 PM CST on March 02, 2015 (GMT -0600)
Hibbing, MN | Change Station
CLOSE
Current Station
Personal Weather Station
Location: Hibbing, MN
Elevation: 1312 ft
Nearby Weather Stations
Active Advisory: Winter Weather Advisory

Elev 1312 ft 47.36 °N, 92.82 °W | Updated 13 minutes ago

Overcast
Overcast
20.8 °F
Feels Like 11 °F
N
8.7
Wind Variable Wind from South
Gusts 8.7 mph

Today
High -- | Low -- °F
--% Chance of Precip.
Yesterday
High -- | Low -- °F
Precip. -- in
6:50 AM 5:57 PM
Waxing Gibbous, 94% visible
Pressure 30.02 in
Visibility 10.0 miles
Clouds Overcast 8500 ft
Windchill 11 °F
Dew Point -17 °F
Humidity 17%
Rainfall 0.00 in
Snow Depth Not available.
UV 0 out of 12
Pollen .10 out of 12
Air Quality Not available.
Flu Activity Not available.
METAR KHIB 030453Z AUTO 17006KT 10SM OVC085 M06/M15 A2994 RMK AO2 SLP165 T10611150

More Conditions Fewer Conditions

Pressure 30.02 in
Visibility 10.0 miles
Clouds Overcast 8500 ft
Windchill 11 °F
Dew Point -17 °F
Humidity 17%
Rainfall 0.00 in
Snow Depth Not available.
UV 0 out of 12
Pollen .10 out of 12
Air Quality Not available.
Flu Activity Not available.
METAR KHIB 030453Z AUTO 17006KT 10SM OVC085 M06/M15 A2994 RMK AO2 SLP165 T10611150

More Conditions Fewer Conditions

10-Day Weather Forecast

Almanac

Astronomy

Mar. 02, 2015 Rise Set
Actual Time
Civil Twilight
Nautical Twilight
Astronomical Twilight
Moon
Length of Visible Light
Length of Day
Tomorrow will be .
, % of the Moon is Illuminated

Today's Extremes

State Highs State Lows

Community

WunderPhotos

Upload Photos

1,802,066 photos uploaded!

WunderBlogs® & News

Nearby

Air Quality

  Air Quality AQ Index Pollutant
Not available.

Snow Depth

Station Depth Elevation

Earthquake Activity

City Distance Mag. Time & Date
Minimum magnitude displayed is 2.5.

Coastal Water Temperatures

Place Temperature

Nearby Weather Stations

Winter Weather Advisory
Statement as of 10:09 PM CST on March 02, 2015

... Winter Weather Advisory remains in effect from noon Tuesday to
midnight CST Tuesday night...

* locations... portions of northeast Minnesota including the Iron
Range and The Arrowhead.

* Timing... snow will begin around 600 am... with the main period of
accumulation expected from 800 am through noon. Strong winds and
blowing snow will develop in the afternoon

* snow accumulations... 2 to 4 inches.

* Winds... becoming northwest 10 to 20 mph with gusts around 30
mph.

* Visibilities... a quarter mile or less at times.

* Impacts... travel conditions will become hazardous early
Tuesday morning through Tuesday night.

Precautionary/preparedness actions...

A Winter Weather Advisory for snow and blowing snow means that
visibilities will be limited due to a combination of falling and
blowing snow. Use caution when traveling... especially in open
areas that are more exposed to the wind. Roads may be slick and
hazardous... so allow extra time to reach your destination.